sensor_id;sensor_type;location;lat;lon;timestamp;temperature;humidity
23755;DHT22;12057;52.042;6.830;2022-08-01T00:00:33;19.30;99.90
23755;DHT22;12057;52.042;6.830;2022-08-01T00:05:34;19.30;99.90
23755;DHT22;12057;52.042;6.830;2022-08-01T00:10:34;19.30;99.90
23755;DHT22;12057;52.042;6.830;2022-08-01T00:15:35;19.20;99.90
23755;DHT22;12057;52.042;6.830;2022-08-01T00:20:36;19.20;99.90
23755;DHT22;12057;52.042;6.830;2022-08-01T00:25:36;19.10;99.90
23755;DHT22;12057;52.042;6.830;2022-08-01T00:30:37;19.10;99.90
23755;DHT22;12057;52.042;6.830;2022-08-01T00:35:37;19.10;99.90
23755;DHT22;12057;52.042;6.830;2022-08-01T00:40:38;19.10;99.90
23755;DHT22;12057;52.042;6.830;2022-08-01T00:45:39;19.10;99.90
23755;DHT22;12057;52.042;6.830;2022-08-01T00:50:39;19.00;99.90
23755;DHT22;12057;52.042;6.830;2022-08-01T00:55:40;19.10;99.90
23755;DHT22;12057;52.042;6.830;2022-08-01T01:00:41;19.00;99.90
23755;DHT22;12057;52.042;6.830;2022-08-01T01:11:02;18.90;99.90
23755;DHT22;12057;52.042;6.830;2022-08-01T01:16:11;18.90;99.90
23755;DHT22;12057;52.042;6.830;2022-08-01T01:31:18;18.80;99.90
23755;DHT22;12057;52.042;6.830;2022-08-01T01:36:20;18.70;99.90
23755;DHT22;12057;52.042;6.830;2022-08-01T01:41:22;18.70;99.90
23755;DHT22;12057;52.042;6.830;2022-08-01T01:46:24;18.70;99.90
23755;DHT22;12057;52.042;6.830;2022-08-01T01:51:27;18.70;99.90
23755;DHT22;12057;52.042;6.830;2022-08-01T01:56:28;18.70;99.90
23755;DHT22;12057;52.042;6.830;2022-08-01T02:01:31;18.70;99.90
23755;DHT22;12057;52.042;6.830;2022-08-01T02:06:32;18.70;99.90
23755;DHT22;12057;52.042;6.830;2022-08-01T02:11:34;18.70;99.90
23755;DHT22;12057;52.042;6.830;2022-08-01T02:16:35;18.80;99.90
23755;DHT22;12057;52.042;6.830;2022-08-01T02:26:38;18.70;99.90
23755;DHT22;12057;52.042;6.830;2022-08-01T02:31:39;18.70;99.90
23755;DHT22;12057;52.042;6.830;2022-08-01T02:36:44;18.70;99.90
23755;DHT22;12057;52.042;6.830;2022-08-01T02:41:49;18.70;99.90
23755;DHT22;12057;52.042;6.830;2022-08-01T02:46:54;18.60;99.90
23755;DHT22;12057;52.042;6.830;2022-08-01T02:51:56;18.60;99.90
23755;DHT22;12057;52.042;6.830;2022-08-01T02:56:58;18.60;99.90
23755;DHT22;12057;52.042;6.830;2022-08-01T03:02:00;18.60;99.90
23755;DHT22;12057;52.042;6.830;2022-08-01T03:07:02;18.60;99.90
23755;DHT22;12057;52.042;6.830;2022-08-01T03:12:14;18.70;99.90
23755;DHT22;12057;52.042;6.830;2022-08-01T03:17:15;18.60;99.90
23755;DHT22;12057;52.042;6.830;2022-08-01T03:22:18;18.60;99.90
23755;DHT22;12057;52.042;6.830;2022-08-01T03:27:19;18.60;99.90
23755;DHT22;12057;52.042;6.830;2022-08-01T03:32:21;18.60;99.90
23755;DHT22;12057;52.042;6.830;2022-08-01T03:43:05;18.60;99.90
23755;DHT22;12057;52.042;6.830;2022-08-01T03:48:15;18.60;99.90
23755;DHT22;12057;52.042;6.830;2022-08-01T03:53:19;18.60;99.90
23755;DHT22;12057;52.042;6.830;2022-08-01T03:58:21;18.50;99.90
23755;DHT22;12057;52.042;6.830;2022-08-01T04:03:22;18.50;99.90
23755;DHT22;12057;52.042;6.830;2022-08-01T04:08:30;18.50;99.90
23755;DHT22;12057;52.042;6.830;2022-08-01T04:13:33;18.50;99.90
23755;DHT22;12057;52.042;6.830;2022-08-01T04:18:34;18.50;99.90
23755;DHT22;12057;52.042;6.830;2022-08-01T04:23:34;18.50;99.90
23755;DHT22;12057;52.042;6.830;2022-08-01T04:28:36;18.50;99.90
23755;DHT22;12057;52.042;6.830;2022-08-01T04:33:40;18.50;99.90
23755;DHT22;12057;52.042;6.830;2022-08-01T04:38:42;18.50;99.90
23755;DHT22;12057;52.042;6.830;2022-08-01T04:43:46;18.50;99.90
23755;DHT22;12057;52.042;6.830;2022-08-01T04:48:47;18.50;99.90
23755;DHT22;12057;52.042;6.830;2022-08-01T04:53:48;18.60;99.90
23755;DHT22;12057;52.042;6.830;2022-08-01T04:58:49;18.50;99.90
23755;DHT22;12057;52.042;6.830;2022-08-01T05:04:09;18.60;99.90
23755;DHT22;12057;52.042;6.830;2022-08-01T05:09:10;18.60;99.90
23755;DHT22;12057;52.042;6.830;2022-08-01T05:14:10;18.70;99.90
23755;DHT22;12057;52.042;6.830;2022-08-01T05:19:11;18.70;99.90
23755;DHT22;12057;52.042;6.830;2022-08-01T05:24:12;18.80;99.90
23755;DHT22;12057;52.042;6.830;2022-08-01T05:29:13;18.80;99.90
23755;DHT22;12057;52.042;6.830;2022-08-01T05:34:14;18.80;99.90
23755;DHT22;12057;52.042;6.830;2022-08-01T05:39:14;18.80;99.90
23755;DHT22;12057;52.042;6.830;2022-08-01T05:44:15;18.90;99.90
23755;DHT22;12057;52.042;6.830;2022-08-01T05:49:16;18.90;99.90
23755;DHT22;12057;52.042;6.830;2022-08-01T05:54:16;19.00;99.90
23755;DHT22;12057;52.042;6.830;2022-08-01T05:59:17;19.10;99.90
23755;DHT22;12057;52.042;6.830;2022-08-01T06:04:18;19.20;99.90
23755;DHT22;12057;52.042;6.830;2022-08-01T06:09:18;19.20;99.90
23755;DHT22;12057;52.042;6.830;2022-08-01T06:14:19;19.20;99.90
23755;DHT22;12057;52.042;6.830;2022-08-01T06:19:19;19.20;99.90
23755;DHT22;12057;52.042;6.830;2022-08-01T06:24:20;19.20;99.90
23755;DHT22;12057;52.042;6.830;2022-08-01T06:29:23;19.30;99.90
23755;DHT22;12057;52.042;6.830;2022-08-01T06:34:24;19.30;99.90
23755;DHT22;12057;52.042;6.830;2022-08-01T06:39:25;19.30;99.90
23755;DHT22;12057;52.042;6.830;2022-08-01T06:44:26;19.40;99.90
23755;DHT22;12057;52.042;6.830;2022-08-01T06:49:26;19.30;99.90
23755;DHT22;12057;52.042;6.830;2022-08-01T06:54:27;19.10;99.90
23755;DHT22;12057;52.042;6.830;2022-08-01T06:59:28;18.90;99.90
23755;DHT22;12057;52.042;6.830;2022-08-01T07:04:29;18.60;99.90
23755;DHT22;12057;52.042;6.830;2022-08-01T07:09:30;18.30;99.90
23755;DHT22;12057;52.042;6.830;2022-08-01T07:14:30;18.30;99.90
23755;DHT22;12057;52.042;6.830;2022-08-01T07:19:31;18.30;99.90
23755;DHT22;12057;52.042;6.830;2022-08-01T07:24:32;18.40;99.90
23755;DHT22;12057;52.042;6.830;2022-08-01T07:29:32;18.50;99.90
23755;DHT22;12057;52.042;6.830;2022-08-01T07:34:33;18.50;99.90
23755;DHT22;12057;52.042;6.830;2022-08-01T07:39:34;18.60;99.90
23755;DHT22;12057;52.042;6.830;2022-08-01T07:44:35;18.70;99.90
23755;DHT22;12057;52.042;6.830;2022-08-01T07:49:35;18.70;99.90
23755;DHT22;12057;52.042;6.830;2022-08-01T07:54:36;18.80;99.90
23755;DHT22;12057;52.042;6.830;2022-08-01T07:59:37;18.80;99.90
23755;DHT22;12057;52.042;6.830;2022-08-01T08:04:37;18.80;99.90
23755;DHT22;12057;52.042;6.830;2022-08-01T08:09:38;18.80;99.90
23755;DHT22;12057;52.042;6.830;2022-08-01T08:14:39;18.80;99.90
23755;DHT22;12057;52.042;6.830;2022-08-01T08:19:39;18.80;99.90
23755;DHT22;12057;52.042;6.830;2022-08-01T08:24:40;18.80;99.90
23755;DHT22;12057;52.042;6.830;2022-08-01T08:29:41;18.80;99.90
23755;DHT22;12057;52.042;6.830;2022-08-01T08:34:42;18.90;99.90
23755;DHT22;12057;52.042;6.830;2022-08-01T08:39:42;19.00;99.90
23755;DHT22;12057;52.042;6.830;2022-08-01T08:44:46;19.10;99.90
23755;DHT22;12057;52.042;6.830;2022-08-01T08:49:50;19.20;99.90
23755;DHT22;12057;52.042;6.830;2022-08-01T08:54:51;19.10;99.90
23755;DHT22;12057;52.042;6.830;2022-08-01T08:59:52;19.10;99.90
23755;DHT22;12057;52.042;6.830;2022-08-01T09:04:54;19.20;99.90
23755;DHT22;12057;52.042;6.830;2022-08-01T09:09:55;19.20;99.90
23755;DHT22;12057;52.042;6.830;2022-08-01T09:14:55;19.30;99.90
23755;DHT22;12057;52.042;6.830;2022-08-01T09:19:56;19.20;99.90
23755;DHT22;12057;52.042;6.830;2022-08-01T09:24:58;19.10;99.90
23755;DHT22;12057;52.042;6.830;2022-08-01T09:30:09;19.00;99.90
23755;DHT22;12057;52.042;6.830;2022-08-01T09:40:46;19.00;99.90
23755;DHT22;12057;52.042;6.830;2022-08-01T09:45:47;18.90;99.90
23755;DHT22;12057;52.042;6.830;2022-08-01T09:50:49;19.00;99.90
23755;DHT22;12057;52.042;6.830;2022-08-01T09:55:50;19.00;99.90
23755;DHT22;12057;52.042;6.830;2022-08-01T10:00:59;19.20;99.90
23755;DHT22;12057;52.042;6.830;2022-08-01T10:06:18;19.30;99.90
23755;DHT22;12057;52.042;6.830;2022-08-01T10:11:19;19.60;99.90
23755;DHT22;12057;52.042;6.830;2022-08-01T10:16:21;19.90;99.90
23755;DHT22;12057;52.042;6.830;2022-08-01T10:21:22;19.80;99.90
23755;DHT22;12057;52.042;6.830;2022-08-01T10:26:25;19.80;99.90
23755;DHT22;12057;52.042;6.830;2022-08-01T10:31:26;19.50;99.90
23755;DHT22;12057;52.042;6.830;2022-08-01T10:36:27;19.50;99.90
23755;DHT22;12057;52.042;6.830;2022-08-01T10:41:28;19.50;99.90
23755;DHT22;12057;52.042;6.830;2022-08-01T10:46:30;19.60;99.90
23755;DHT22;12057;52.042;6.830;2022-08-01T10:51:31;20.20;99.90
23755;DHT22;12057;52.042;6.830;2022-08-01T10:56:48;20.50;99.90
23755;DHT22;12057;52.042;6.830;2022-08-01T11:01:58;20.40;99.90
23755;DHT22;12057;52.042;6.830;2022-08-01T11:07:06;20.30;99.90
23755;DHT22;12057;52.042;6.830;2022-08-01T11:22:29;21.20;99.90
23755;DHT22;12057;52.042;6.830;2022-08-01T11:27:30;21.50;99.90
23755;DHT22;12057;52.042;6.830;2022-08-01T11:32:31;21.60;99.90
23755;DHT22;12057;52.042;6.830;2022-08-01T11:37:32;21.70;99.90
23755;DHT22;12057;52.042;6.830;2022-08-01T11:42:33;21.60;99.90
23755;DHT22;12057;52.042;6.830;2022-08-01T11:47:49;21.50;99.90
23755;DHT22;12057;52.042;6.830;2022-08-01T11:52:57;21.60;99.90
23755;DHT22;12057;52.042;6.830;2022-08-01T11:58:07;21.50;99.90
23755;DHT22;12057;52.042;6.830;2022-08-01T12:03:08;21.80;99.90
23755;DHT22;12057;52.042;6.830;2022-08-01T12:08:11;22.10;99.90
23755;DHT22;12057;52.042;6.830;2022-08-01T12:13:12;22.40;99.90
23755;DHT22;12057;52.042;6.830;2022-08-01T12:18:12;22.10;99.90
23755;DHT22;12057;52.042;6.830;2022-08-01T12:23:15;22.20;99.90
23755;DHT22;12057;52.042;6.830;2022-08-01T12:28:16;22.50;99.90
23755;DHT22;12057;52.042;6.830;2022-08-01T12:33:19;22.40;99.90
23755;DHT22;12057;52.042;6.830;2022-08-01T12:38:21;22.20;99.90
23755;DHT22;12057;52.042;6.830;2022-08-01T12:43:27;22.00;99.90
23755;DHT22;12057;52.042;6.830;2022-08-01T12:48:31;21.80;99.90
23755;DHT22;12057;52.042;6.830;2022-08-01T12:53:35;22.10;99.90
23755;DHT22;12057;52.042;6.830;2022-08-01T12:58:36;22.30;99.90
23755;DHT22;12057;52.042;6.830;2022-08-01T13:03:37;22.40;99.90
23755;DHT22;12057;52.042;6.830;2022-08-01T13:08:37;22.60;99.90
23755;DHT22;12057;52.042;6.830;2022-08-01T13:13:39;22.90;99.90
23755;DHT22;12057;52.042;6.830;2022-08-01T13:18:40;22.80;99.90
23755;DHT22;12057;52.042;6.830;2022-08-01T13:29:04;22.70;99.90
23755;DHT22;12057;52.042;6.830;2022-08-01T13:34:05;22.70;99.90
23755;DHT22;12057;52.042;6.830;2022-08-01T13:39:06;23.00;99.90
23755;DHT22;12057;52.042;6.830;2022-08-01T13:44:25;23.10;99.90
23755;DHT22;12057;52.042;6.830;2022-08-01T13:49:29;23.00;99.90
23755;DHT22;12057;52.042;6.830;2022-08-01T13:54:30;23.10;99.90
23755;DHT22;12057;52.042;6.830;2022-08-01T13:59:31;23.00;99.90
23755;DHT22;12057;52.042;6.830;2022-08-01T14:04:32;23.30;99.90
23755;DHT22;12057;52.042;6.830;2022-08-01T14:09:33;23.50;99.90
23755;DHT22;12057;52.042;6.830;2022-08-01T14:14:33;23.60;99.90
23755;DHT22;12057;52.042;6.830;2022-08-01T14:19:34;24.30;99.90
23755;DHT22;12057;52.042;6.830;2022-08-01T14:24:34;24.60;99.90
23755;DHT22;12057;52.042;6.830;2022-08-01T14:29:35;24.30;99.90
23755;DHT22;12057;52.042;6.830;2022-08-01T14:34:36;24.00;99.90
23755;DHT22;12057;52.042;6.830;2022-08-01T14:39:36;23.60;99.90
23755;DHT22;12057;52.042;6.830;2022-08-01T14:44:37;23.20;99.90
23755;DHT22;12057;52.042;6.830;2022-08-01T14:49:38;23.30;99.90
23755;DHT22;12057;52.042;6.830;2022-08-01T14:54:38;23.90;99.90
23755;DHT22;12057;52.042;6.830;2022-08-01T14:59:42;24.20;99.90
23755;DHT22;12057;52.042;6.830;2022-08-01T15:04:46;24.50;99.90
23755;DHT22;12057;52.042;6.830;2022-08-01T15:09:46;24.70;99.90
23755;DHT22;12057;52.042;6.830;2022-08-01T15:14:50;24.80;99.90
23755;DHT22;12057;52.042;6.830;2022-08-01T15:19:52;24.80;99.90
23755;DHT22;12057;52.042;6.830;2022-08-01T15:24:53;24.70;99.90
23755;DHT22;12057;52.042;6.830;2022-08-01T15:29:54;24.10;99.90
23755;DHT22;12057;52.042;6.830;2022-08-01T15:34:55;24.30;99.90
23755;DHT22;12057;52.042;6.830;2022-08-01T15:39:56;24.30;99.90
23755;DHT22;12057;52.042;6.830;2022-08-01T15:44:57;24.10;99.90
23755;DHT22;12057;52.042;6.830;2022-08-01T15:49:57;23.80;99.90
23755;DHT22;12057;52.042;6.830;2022-08-01T15:55:01;23.90;99.90
23755;DHT22;12057;52.042;6.830;2022-08-01T16:00:02;23.90;99.90
23755;DHT22;12057;52.042;6.830;2022-08-01T16:05:03;23.90;99.90
23755;DHT22;12057;52.042;6.830;2022-08-01T16:10:05;24.10;99.90
23755;DHT22;12057;52.042;6.830;2022-08-01T16:15:06;24.20;99.90
23755;DHT22;12057;52.042;6.830;2022-08-01T16:20:07;24.30;99.90
23755;DHT22;12057;52.042;6.830;2022-08-01T16:25:08;23.90;99.90
23755;DHT22;12057;52.042;6.830;2022-08-01T16:30:10;23.50;99.90
23755;DHT22;12057;52.042;6.830;2022-08-01T16:35:11;23.30;99.90
23755;DHT22;12057;52.042;6.830;2022-08-01T16:40:11;23.60;99.90
23755;DHT22;12057;52.042;6.830;2022-08-01T16:45:12;23.70;99.90
23755;DHT22;12057;52.042;6.830;2022-08-01T16:50:15;23.50;99.90
23755;DHT22;12057;52.042;6.830;2022-08-01T16:55:15;23.10;99.90
23755;DHT22;12057;52.042;6.830;2022-08-01T17:00:16;22.80;99.90
23755;DHT22;12057;52.042;6.830;2022-08-01T17:05:19;22.70;99.90
23755;DHT22;12057;52.042;6.830;2022-08-01T17:10:20;22.60;99.90
23755;DHT22;12057;52.042;6.830;2022-08-01T17:15:20;22.60;99.90
23755;DHT22;12057;52.042;6.830;2022-08-01T17:20:21;22.50;99.90
23755;DHT22;12057;52.042;6.830;2022-08-01T17:25:22;22.50;99.90
23755;DHT22;12057;52.042;6.830;2022-08-01T17:30:23;22.20;99.90
23755;DHT22;12057;52.042;6.830;2022-08-01T17:35:24;22.10;99.90
23755;DHT22;12057;52.042;6.830;2022-08-01T17:40:25;22.00;99.90
23755;DHT22;12057;52.042;6.830;2022-08-01T17:45:25;21.90;99.90
23755;DHT22;12057;52.042;6.830;2022-08-01T17:50:26;21.90;99.90
23755;DHT22;12057;52.042;6.830;2022-08-01T17:55:27;22.00;99.90
23755;DHT22;12057;52.042;6.830;2022-08-01T18:00:27;22.10;99.90
23755;DHT22;12057;52.042;6.830;2022-08-01T18:05:28;21.90;99.90
23755;DHT22;12057;52.042;6.830;2022-08-01T18:10:28;22.10;99.90
23755;DHT22;12057;52.042;6.830;2022-08-01T18:15:29;22.10;99.90
23755;DHT22;12057;52.042;6.830;2022-08-01T18:20:30;22.00;99.90
23755;DHT22;12057;52.042;6.830;2022-08-01T18:25:31;21.80;99.90
23755;DHT22;12057;52.042;6.830;2022-08-01T18:30:33;21.50;99.90
23755;DHT22;12057;52.042;6.830;2022-08-01T18:35:34;21.20;99.90
23755;DHT22;12057;52.042;6.830;2022-08-01T18:40:34;21.00;99.90
23755;DHT22;12057;52.042;6.830;2022-08-01T18:45:35;20.70;99.90
23755;DHT22;12057;52.042;6.830;2022-08-01T18:50:35;20.50;99.90
23755;DHT22;12057;52.042;6.830;2022-08-01T18:55:36;20.30;99.90
23755;DHT22;12057;52.042;6.830;2022-08-01T19:00:37;20.10;99.90
23755;DHT22;12057;52.042;6.830;2022-08-01T19:05:39;19.80;99.90
23755;DHT22;12057;52.042;6.830;2022-08-01T19:10:39;19.70;99.90
23755;DHT22;12057;52.042;6.830;2022-08-01T19:15:40;19.50;99.90
23755;DHT22;12057;52.042;6.830;2022-08-01T19:20:41;19.30;99.90
23755;DHT22;12057;52.042;6.830;2022-08-01T19:25:44;18.90;99.90
23755;DHT22;12057;52.042;6.830;2022-08-01T19:30:44;18.80;99.90
23755;DHT22;12057;52.042;6.830;2022-08-01T19:35:45;18.60;99.90
23755;DHT22;12057;52.042;6.830;2022-08-01T19:40:52;18.40;99.90
23755;DHT22;12057;52.042;6.830;2022-08-01T19:45:53;18.20;99.90
23755;DHT22;12057;52.042;6.830;2022-08-01T19:50:55;17.90;99.90
23755;DHT22;12057;52.042;6.830;2022-08-01T19:56:01;17.90;99.90
23755;DHT22;12057;52.042;6.830;2022-08-01T20:01:02;17.70;99.90
23755;DHT22;12057;52.042;6.830;2022-08-01T20:06:03;17.60;99.90
23755;DHT22;12057;52.042;6.830;2022-08-01T20:11:05;17.40;99.90
23755;DHT22;12057;52.042;6.830;2022-08-01T20:16:11;17.30;99.90
23755;DHT22;12057;52.042;6.830;2022-08-01T20:21:12;17.10;99.90
23755;DHT22;12057;52.042;6.830;2022-08-01T20:26:13;16.90;99.90
23755;DHT22;12057;52.042;6.830;2022-08-01T20:31:15;16.90;99.90
23755;DHT22;12057;52.042;6.830;2022-08-01T20:36:17;16.60;99.90
23755;DHT22;12057;52.042;6.830;2022-08-01T20:41:24;16.50;99.90
23755;DHT22;12057;52.042;6.830;2022-08-01T20:46:26;16.40;99.90
23755;DHT22;12057;52.042;6.830;2022-08-01T20:51:27;16.30;99.90
23755;DHT22;12057;52.042;6.830;2022-08-01T21:01:33;16.20;99.90
23755;DHT22;12057;52.042;6.830;2022-08-01T21:06:40;16.10;99.90
23755;DHT22;12057;52.042;6.830;2022-08-01T21:11:49;15.90;99.90
23755;DHT22;12057;52.042;6.830;2022-08-01T21:16:56;15.80;99.90
23755;DHT22;12057;52.042;6.830;2022-08-01T21:22:10;15.60;99.90
23755;DHT22;12057;52.042;6.830;2022-08-01T21:27:13;15.60;99.90
23755;DHT22;12057;52.042;6.830;2022-08-01T21:32:13;15.50;99.90
23755;DHT22;12057;52.042;6.830;2022-08-01T21:37:15;15.50;99.90
23755;DHT22;12057;52.042;6.830;2022-08-01T21:42:16;15.30;99.90
23755;DHT22;12057;52.042;6.830;2022-08-01T21:47:17;15.30;99.90
23755;DHT22;12057;52.042;6.830;2022-08-01T21:52:18;15.20;99.90
23755;DHT22;12057;52.042;6.830;2022-08-01T22:07:59;15.20;99.90
23755;DHT22;12057;52.042;6.830;2022-08-01T22:13:01;15.20;99.90
23755;DHT22;12057;52.042;6.830;2022-08-01T22:18:02;15.10;99.90
23755;DHT22;12057;52.042;6.830;2022-08-01T22:23:03;15.00;99.90
23755;DHT22;12057;52.042;6.830;2022-08-01T22:28:05;14.90;99.90
23755;DHT22;12057;52.042;6.830;2022-08-01T22:33:06;14.70;99.90
23755;DHT22;12057;52.042;6.830;2022-08-01T22:38:08;14.50;99.90
23755;DHT22;12057;52.042;6.830;2022-08-01T22:44:11;14.50;99.90
23755;DHT22;12057;52.042;6.830;2022-08-01T22:53:51;14.10;99.90
23755;DHT22;12057;52.042;6.830;2022-08-01T22:58:53;14.20;99.90
23755;DHT22;12057;52.042;6.830;2022-08-01T23:03:53;14.10;99.90
23755;DHT22;12057;52.042;6.830;2022-08-01T23:08:56;13.90;99.90
23755;DHT22;12057;52.042;6.830;2022-08-01T23:13:57;13.80;99.90
23755;DHT22;12057;52.042;6.830;2022-08-01T23:18:59;13.90;99.90
23755;DHT22;12057;52.042;6.830;2022-08-01T23:24:00;13.60;99.90
23755;DHT22;12057;52.042;6.830;2022-08-01T23:29:02;13.60;99.90
23755;DHT22;12057;52.042;6.830;2022-08-01T23:34:03;13.60;99.90
23755;DHT22;12057;52.042;6.830;2022-08-01T23:39:04;13.70;99.90
23755;DHT22;12057;52.042;6.830;2022-08-01T23:44:04;13.80;99.90
23755;DHT22;12057;52.042;6.830;2022-08-01T23:49:05;13.80;99.90
23755;DHT22;12057;52.042;6.830;2022-08-01T23:54:05;13.70;99.90
23755;DHT22;12057;52.042;6.830;2022-08-01T23:59:06;13.60;99.90
